Time;durP1;ratioP1;P1;durP2;ratioP2;P2;SDS_P1;SDS_P2;PMS_P1;PMS_P2;Temp;Humidity;BMP_temperature;BMP_pressure;BME280_temperature;BME280_humidity;BME280_pressure;Samples;Min_cycle;Max_cycle;Signal;HPM_P1;HPM_P2
2021/05/02 00:00:56;;;;;;;12.85;8.95;;;;;;;15.93;75.28;99832.56;1647886;87;21371;-64
2021/05/02 00:03:24;;;;;;;15.78;9.93;;;;;;;15.95;75.22;99819.88;1648143;87;21114;-64
2021/05/02 00:05:52;;;;;;;14.90;10.23;;;;;;;15.92;75.19;99815.69;1648039;87;21111;-64
2021/05/02 00:08:20;;;;;;;16.23;10.35;;;;;;;15.91;75.29;99812.63;1648117;87;21292;-66
2021/05/02 00:10:49;;;;;;;13.78;8.00;;;;;;;15.90;75.38;99807.35;1648000;87;21153;-65
2021/05/02 00:13:16;;;;;;;15.40;9.08;;;;;;;15.88;75.42;99806.22;1648149;87;21367;-64
2021/05/02 00:15:44;;;;;;;11.40;8.53;;;;;;;15.87;75.40;99803.70;1648081;87;21361;-65
2021/05/02 00:18:11;;;;;;;17.95;9.33;;;;;;;15.84;75.46;99798.13;1648023;87;21361;-64
2021/05/02 00:20:39;;;;;;;14.07;9.93;;;;;;;15.79;75.57;99789.74;1648195;87;21099;-64
2021/05/02 00:23:06;;;;;;;13.90;8.70;;;;;;;15.76;75.63;99785.55;1648123;87;21307;-65
2021/05/02 00:25:33;;;;;;;15.23;8.65;;;;;;;15.76;75.76;99780.56;1648208;87;21306;-63
2021/05/02 00:28:06;;;;;;;14.85;8.63;;;;;;;15.77;75.82;99783.62;1648098;87;21098;-65
2021/05/02 00:30:34;;;;;;;11.83;9.05;;;;;;;15.75;75.89;99779.73;1647587;87;21387;-65
2021/05/02 00:33:02;;;;;;;14.68;9.15;;;;;;;15.71;76.03;99776.33;1648072;87;21317;-63
2021/05/02 00:35:29;;;;;;;11.73;7.87;;;;;;;15.68;76.16;99771.30;1648166;87;21194;-65
2021/05/02 00:37:57;;;;;;;13.65;8.20;;;;;;;15.66;76.27;99770.70;1648218;87;21385;-66
2021/05/02 00:40:40;;;;;;;13.18;8.60;;;;;;;15.67;76.29;99771.00;1648236;87;21114;-66
2021/05/02 00:43:10;;;;;;;13.00;8.38;;;;;;;15.68;76.33;99771.30;1647171;87;21170;-65
2021/05/02 00:45:49;;;;;;;12.53;8.95;;;;;;;15.65;76.46;99768.48;1648027;87;21087;-64
2021/05/02 00:48:32;;;;;;;13.88;8.55;;;;;;;15.60;76.56;99761.45;1648121;87;21294;-65
2021/05/02 00:51:04;;;;;;;15.03;7.83;;;;;;;15.58;76.59;99765.00;1648163;87;21752;-65
2021/05/02 00:54:07;;;;;;;14.65;9.28;;;;;;;15.57;76.75;99763.83;1648112;87;21217;-66
2021/05/02 00:56:37;;;;;;;13.50;9.05;;;;;;;15.52;76.84;99761.27;1648138;87;21104;-64
2021/05/02 00:59:06;;;;;;;14.03;8.25;;;;;;;15.46;76.94;99755.89;1622159;87;21353;-66
2021/05/02 01:01:50;;;;;;;11.48;7.85;;;;;;;15.44;77.05;99747.85;1648203;87;21135;-66
2021/05/02 01:04:22;;;;;;;13.95;8.53;;;;;;;15.44;77.06;99757.52;1648161;87;21220;-64
2021/05/02 01:06:49;;;;;;;13.25;8.83;;;;;;;15.39;77.22;99750.51;1648099;87;21060;-65
2021/05/02 01:09:17;;;;;;;13.03;8.40;;;;;;;15.37;77.38;99747.16;1648042;87;21488;-64
2021/05/02 01:11:46;;;;;;;11.75;7.97;;;;;;;15.35;77.43;99749.86;1648128;87;21259;-64
2021/05/02 01:14:19;;;;;;;10.53;7.80;;;;;;;15.33;77.49;99744.59;1648174;87;21281;-64
2021/05/02 01:16:46;;;;;;;12.05;7.70;;;;;;;15.31;77.54;99751.44;1648111;87;21768;-64
2021/05/02 01:19:14;;;;;;;12.60;7.72;;;;;;;15.29;77.61;99750.30;1644133;87;21436;-65
2021/05/02 01:21:42;;;;;;;12.33;7.95;;;;;;;15.26;77.68;99756.31;1643834;87;21810;-65
2021/05/02 01:24:11;;;;;;;12.73;8.03;;;;;;;15.21;77.87;99757.05;1643671;87;21839;-65
2021/05/02 01:26:44;;;;;;;12.40;8.10;;;;;;;15.19;77.95;99748.17;1643482;87;21358;-64
2021/05/02 01:29:13;;;;;;;12.10;7.12;;;;;;;15.20;78.05;99753.15;1643699;87;21059;-64
2021/05/02 01:31:42;;;;;;;12.53;8.58;;;;;;;15.21;78.08;99747.38;1643653;87;21282;-65
2021/05/02 01:34:10;;;;;;;11.55;8.58;;;;;;;15.24;78.13;99747.44;1643712;87;21222;-64
2021/05/02 01:36:38;;;;;;;13.00;8.63;;;;;;;15.22;78.23;99747.68;1643752;87;21095;-64
2021/05/02 01:39:07;;;;;;;13.10;8.08;;;;;;;15.21;78.25;99743.24;1643623;87;21075;-64
2021/05/02 01:41:36;;;;;;;10.88;7.87;;;;;;;15.20;78.22;99744.87;1669219;86;21126;-65
2021/05/02 01:44:04;;;;;;;10.43;7.47;;;;;;;15.17;78.30;99737.08;1643528;86;21559;-65
2021/05/02 01:46:38;;;;;;;10.95;7.70;;;;;;;15.14;78.43;99738.40;1669236;86;21069;-65
2021/05/02 01:49:10;;;;;;;12.35;8.08;;;;;;;15.10;78.61;99736.38;1643670;87;21107;-64
2021/05/02 01:51:39;;;;;;;11.35;7.22;;;;;;;15.08;78.71;99744.05;1669028;86;21098;-65
2021/05/02 01:54:06;;;;;;;10.43;7.17;;;;;;;15.07;78.83;99743.76;1642568;87;21874;-65
2021/05/02 01:56:34;;;;;;;10.13;6.40;;;;;;;15.08;78.89;99732.48;1669409;86;21196;-64
2021/05/02 01:59:03;;;;;;;9.38;6.85;;;;;;;15.08;78.92;99723.36;1643544;87;21194;-65
2021/05/02 02:01:31;;;;;;;9.08;7.00;;;;;;;15.08;78.97;99734.41;1669301;86;21215;-64
2021/05/02 02:04:05;;;;;;;9.00;6.33;;;;;;;15.08;79.02;99730.27;1643746;87;21195;-64
2021/05/02 02:06:33;;;;;;;9.53;6.50;;;;;;;15.08;79.09;99721.98;1669201;86;21750;-64
2021/05/02 02:09:08;;;;;;;9.70;6.80;;;;;;;15.10;79.05;99721.20;1643563;87;21116;-66
2021/05/02 02:11:36;;;;;;;11.00;7.58;;;;;;;15.10;79.00;99715.68;1669138;86;21176;-65
2021/05/02 02:14:05;;;;;;;9.38;6.80;;;;;;;15.10;78.99;99715.68;1643650;87;21326;-65
2021/05/02 02:16:33;;;;;;;9.40;6.65;;;;;;;15.08;78.92;99715.09;1669124;86;21376;-65
2021/05/02 02:19:02;;;;;;;10.75;7.30;;;;;;;15.07;78.98;99707.89;1643494;87;21080;-65
2021/05/02 02:21:30;;;;;;;9.50;6.95;;;;;;;15.08;78.92;99719.22;1669146;86;21308;-64
2021/05/02 02:24:01;;;;;;;10.38;6.78;;;;;;;15.06;78.99;99718.09;1643713;87;21297;-64
2021/05/02 02:26:44;;;;;;;9.78;6.25;;;;;;;15.05;79.08;99710.89;1669267;86;21396;-64
2021/05/02 02:29:12;;;;;;;9.73;6.15;;;;;;;15.04;79.10;99715.28;1642837;87;21098;-64
2021/05/02 02:31:39;;;;;;;10.32;6.40;;;;;;;15.02;79.13;99716.90;1669024;86;21382;-66
2021/05/02 02:34:06;;;;;;;9.23;6.12;;;;;;;15.01;79.13;99719.90;1643457;87;21633;-65
2021/05/02 02:36:34;;;;;;;8.78;6.60;;;;;;;15.00;79.18;99715.47;1669017;86;21232;-65
2021/05/02 02:39:02;;;;;;;9.83;6.30;;;;;;;14.98;79.30;99712.11;1643609;87;21344;-64
2021/05/02 02:41:29;;;;;;;10.15;6.15;;;;;;;14.98;79.38;99709.35;1669139;86;21328;-64
2021/05/02 02:43:58;;;;;;;10.23;6.28;;;;;;;14.97;79.36;99702.16;1643554;86;21367;-64
2021/05/02 02:46:25;;;;;;;9.55;6.42;;;;;;;14.95;79.41;99703.75;1669134;86;21233;-65
2021/05/02 02:48:57;;;;;;;8.95;6.37;;;;;;;14.94;79.49;99703.45;1643734;87;21350;-64
2021/05/02 02:51:27;;;;;;;9.30;6.50;;;;;;;14.92;79.50;99693.20;1669065;86;21340;-64
2021/05/02 02:53:57;;;;;;;8.15;5.50;;;;;;;14.89;79.58;99681.28;1643778;87;21102;-64
2021/05/02 02:56:24;;;;;;;9.13;5.80;;;;;;;14.88;79.61;99684.58;1669086;86;21070;-63
2021/05/02 02:59:04;;;;;;;9.63;6.42;;;;;;;14.85;79.61;99682.30;1643725;87;21118;-64
2021/05/02 03:01:32;;;;;;;10.65;5.92;;;;;;;14.83;79.77;99685.84;1669260;86;21102;-65
2021/05/02 03:03:59;;;;;;;12.05;6.67;;;;;;;14.83;79.92;99689.14;1643610;87;21218;-64
2021/05/02 03:06:28;;;;;;;9.50;6.35;;;;;;;14.80;79.92;99691.02;1669083;86;21089;-65
2021/05/02 03:08:57;;;;;;;10.28;6.37;;;;;;;14.78;80.00;99688.50;1643671;87;21096;-65
2021/05/02 03:11:25;;;;;;;9.58;6.25;;;;;;;14.79;80.03;99701.20;1669111;86;21133;-65
2021/05/02 03:13:53;;;;;;;10.43;6.83;;;;;;;14.77;80.10;99707.50;1643624;87;21296;-65
2021/05/02 03:16:27;;;;;;;9.90;6.97;;;;;;;14.75;80.22;99712.42;1668917;86;21364;-65
2021/05/02 03:19:14;;;;;;;11.43;7.08;;;;;;;14.74;80.32;99717.64;1647183;87;21122;-65
2021/05/02 03:21:57;;;;;;;11.78;7.42;;;;;;;14.74;80.37;99716.26;1655821;85;21336;-64
2021/05/02 03:24:29;;;;;;;9.38;6.08;;;;;;;14.75;80.47;99708.28;1677355;85;21272;-64
2021/05/02 03:27:04;;;;;;;8.00;5.95;;;;;;;14.77;80.47;99707.50;1679356;85;21502;-64
2021/05/02 03:29:40;;;;;;;8.48;5.90;;;;;;;14.80;80.44;99711.70;1677408;85;21232;-65
2021/05/02 03:32:10;;;;;;;14.05;7.37;;;;;;;14.82;80.41;99695.74;1652157;85;21172;-64
2021/05/02 03:34:41;;;;;;;10.13;5.72;;;;;;;14.86;80.26;99697.77;1651467;87;21342;-64
2021/05/02 03:37:14;;;;;;;8.90;5.15;;;;;;;14.88;80.17;99693.39;1651315;87;21767;-64
2021/05/02 03:39:42;;;;;;;9.20;5.72;;;;;;;14.90;80.11;99692.61;1651359;87;21091;-64
2021/05/02 03:42:09;;;;;;;8.33;5.40;;;;;;;14.90;80.08;99694.83;1651290;87;21394;-64
2021/05/02 03:44:37;;;;;;;6.65;5.03;;;;;;;14.94;80.07;99688.82;1651347;87;21266;-65
2021/05/02 03:47:04;;;;;;;6.65;4.45;;;;;;;14.98;79.93;99696.39;1651449;87;21102;-65
2021/05/02 03:49:34;;;;;;;8.18;4.83;;;;;;;15.02;79.78;99701.73;1651408;87;21122;-66
2021/05/02 03:52:03;;;;;;;6.65;4.45;;;;;;;15.01;79.61;99707.48;1651509;87;21189;-64
2021/05/02 03:54:30;;;;;;;7.35;4.72;;;;;;;15.00;79.65;99708.56;1651338;87;21811;-64
2021/05/02 03:56:58;;;;;;;7.80;4.70;;;;;;;14.99;79.69;99711.87;1651445;87;21762;-63
2021/05/02 03:59:26;;;;;;;6.72;4.28;;;;;;;15.01;79.67;99719.36;1651316;87;21319;-64
2021/05/02 04:01:58;;;;;;;7.22;4.62;;;;;;;15.05;79.67;99715.58;1651415;87;21337;-64
2021/05/02 04:04:28;;;;;;;7.80;4.95;;;;;;;15.09;79.62;99715.38;1651448;87;21329;-64
2021/05/02 04:07:10;;;;;;;7.92;5.20;;;;;;;15.10;79.54;99713.76;1651390;87;21344;-63
2021/05/02 04:09:40;;;;;;;10.65;4.90;;;;;;;15.11;79.54;99706.31;1651448;87;21115;-64
2021/05/02 04:12:09;;;;;;;12.33;4.83;;;;;;;15.14;79.50;99704.45;1651283;87;21185;-65
2021/05/02 04:14:37;;;;;;;5.83;4.20;;;;;;;15.18;79.39;99698.73;1651514;87;21199;-64
2021/05/02 04:17:09;;;;;;;6.08;4.22;;;;;;;15.23;79.28;99696.92;1651358;87;21209;-65
2021/05/02 04:19:40;;;;;;;6.58;4.20;;;;;;;15.28;79.18;99688.45;1651221;87;21096;-63
2021/05/02 04:22:09;;;;;;;7.85;5.05;;;;;;;15.28;79.02;99696.72;1651360;87;21322;-65
2021/05/02 04:24:36;;;;;;;8.13;4.53;;;;;;;15.30;79.07;99688.50;1651332;87;21083;-64
2021/05/02 04:27:05;;;;;;;6.45;4.15;;;;;;;15.36;79.00;99684.75;1651325;87;21099;-63
2021/05/02 04:29:34;;;;;;;6.67;4.97;;;;;;;15.43;78.79;99685.44;1651356;87;21848;-64
2021/05/02 04:32:01;;;;;;;10.25;5.05;;;;;;;15.49;78.67;99691.89;1651288;87;21793;-64
2021/05/02 04:34:29;;;;;;;6.15;4.60;;;;;;;15.52;78.46;99686.72;1651406;87;21118;-64
2021/05/02 04:36:57;;;;;;;8.28;4.50;;;;;;;15.53;78.29;99685.62;1651381;87;21109;-65
2021/05/02 04:39:25;;;;;;;8.05;4.42;;;;;;;15.56;78.21;99681.53;1651404;87;21089;-64
2021/05/02 04:41:53;;;;;;;7.37;4.20;;;;;;;15.59;78.10;99676.09;1651500;87;21881;-65
2021/05/02 04:44:21;;;;;;;8.08;5.00;;;;;;;15.61;77.97;99676.17;1651437;87;21169;-64
2021/05/02 04:46:48;;;;;;;9.88;5.12;;;;;;;15.63;77.92;99671.23;1651445;87;21139;-65
2021/05/02 04:49:16;;;;;;;7.25;4.70;;;;;;;15.64;77.90;99677.59;1651317;87;21071;-64
2021/05/02 04:51:43;;;;;;;7.42;4.58;;;;;;;15.66;77.91;99680.95;1651507;87;21323;-65
2021/05/02 04:54:11;;;;;;;8.05;4.40;;;;;;;15.66;77.81;99680.95;1651421;87;21276;-64
2021/05/02 04:56:39;;;;;;;9.00;4.58;;;;;;;15.65;77.78;99681.49;1651317;87;21362;-65
2021/05/02 04:59:07;;;;;;;7.05;4.80;;;;;;;15.67;77.77;99695.89;1651388;87;21071;-64
2021/05/02 05:01:39;;;;;;;7.72;4.80;;;;;;;15.70;77.87;99694.55;1651401;87;21828;-65
2021/05/02 05:04:06;;;;;;;8.98;5.28;;;;;;;15.71;77.70;99692.92;1650495;87;21229;-64
2021/05/02 05:06:35;;;;;;;5.67;4.33;;;;;;;15.72;77.57;99685.48;1651411;87;21361;-65
2021/05/02 05:09:04;;;;;;;6.75;4.55;;;;;;;15.75;77.55;99689.95;1651360;87;21110;-64
2021/05/02 05:11:31;;;;;;;9.85;5.40;;;;;;;15.77;77.45;99678.12;1652329;87;21103;-65
2021/05/02 05:14:00;;;;;;;7.25;4.33;;;;;;;15.83;77.37;99683.19;1651569;87;21127;-65
2021/05/02 05:16:28;;;;;;;6.45;4.10;;;;;;;15.87;77.27;99679.38;1651357;87;21086;-64
2021/05/02 05:18:56;;;;;;;6.62;4.83;;;;;;;15.88;77.22;99678.30;1651425;87;21208;-64
2021/05/02 05:21:24;;;;;;;4.80;3.80;;;;;;;15.93;77.08;99679.77;1651395;87;21060;-64
2021/05/02 05:23:52;;;;;;;6.58;4.00;;;;;;;15.96;76.90;99677.88;1651426;87;21090;-64
2021/05/02 05:26:19;;;;;;;6.47;4.10;;;;;;;15.98;76.81;99694.50;1651407;87;21124;-64
2021/05/02 05:28:46;;;;;;;6.60;3.80;;;;;;;16.03;76.72;99689.60;1651178;87;21051;-66
2021/05/02 05:31:14;;;;;;;6.85;4.45;;;;;;;16.06;76.64;99682.20;1648963;87;21716;-65
2021/05/02 05:33:42;;;;;;;5.83;3.87;;;;;;;16.09;76.54;99685.84;1648981;87;21091;-66
2021/05/02 05:36:12;;;;;;;6.55;4.25;;;;;;;16.13;76.51;99680.09;1648767;87;21075;-66
2021/05/02 05:38:39;;;;;;;6.47;3.92;;;;;;;16.17;76.39;99678.50;1648932;87;21290;-66
2021/05/02 05:41:06;;;;;;;7.20;4.12;;;;;;;16.22;76.19;99683.28;1648828;87;21338;-66
2021/05/02 05:43:34;;;;;;;8.13;4.62;;;;;;;16.27;76.05;99678.70;1648728;87;21453;-65
2021/05/02 05:46:02;;;;;;;6.75;4.75;;;;;;;16.32;75.85;99670.48;1648839;87;21226;-68
2021/05/02 05:48:31;;;;;;;7.85;5.35;;;;;;;16.36;75.91;99664.73;1648796;87;21309;-65
2021/05/02 05:50:59;;;;;;;9.30;4.83;;;;;;;16.40;75.87;99668.67;1648962;87;21437;-66
2021/05/02 05:53:26;;;;;;;8.03;4.53;;;;;;;16.47;75.69;99674.02;1648851;87;21099;-65
2021/05/02 05:55:56;;;;;;;6.92;4.42;;;;;;;16.53;75.65;99669.41;1648797;87;21130;-64
2021/05/02 05:58:24;;;;;;;8.33;3.80;;;;;;;16.62;75.52;99673.41;1648734;87;21456;-65
2021/05/02 06:00:51;;;;;;;10.93;5.05;;;;;;;16.68;75.32;99667.72;1648785;87;21276;-65
2021/05/02 06:03:19;;;;;;;8.48;5.05;;;;;;;16.74;75.13;99658.39;1648722;87;21099;-64
2021/05/02 06:05:47;;;;;;;9.03;4.42;;;;;;;16.81;74.83;99660.97;1648764;87;21098;-64
2021/05/02 06:08:15;;;;;;;7.40;4.37;;;;;;;16.89;74.66;99657.76;1648702;87;21136;-64
2021/05/02 06:10:44;;;;;;;7.05;4.92;;;;;;;16.97;74.47;99647.66;1648637;87;21146;-64
2021/05/02 06:13:12;;;;;;;7.80;5.20;;;;;;;17.06;74.27;99649.42;1648712;87;21086;-65
2021/05/02 06:15:39;;;;;;;6.47;4.47;;;;;;;17.08;73.99;99648.61;1627650;87;21357;-64
2021/05/02 06:18:08;;;;;;;7.47;4.65;;;;;;;17.12;73.94;99648.38;1648509;87;21320;-65
2021/05/02 06:20:36;;;;;;;10.65;4.55;;;;;;;17.17;73.63;99651.21;1644746;87;21472;-65
2021/05/02 06:23:03;;;;;;;7.35;3.90;;;;;;;17.21;73.51;99650.14;1643074;87;21067;-65
2021/05/02 06:25:30;;;;;;;8.28;4.00;;;;;;;17.23;73.33;99643.25;1643035;87;21429;-64
2021/05/02 06:28:00;;;;;;;6.62;4.28;;;;;;;17.26;73.20;99648.27;1642914;87;21343;-66
2021/05/02 06:30:28;;;;;;;8.78;4.83;;;;;;;17.30;73.22;99641.66;1642927;87;21095;-64
2021/05/02 06:32:56;;;;;;;5.80;4.30;;;;;;;17.34;72.98;99651.12;1642871;87;21316;-64
2021/05/02 06:35:23;;;;;;;7.00;4.10;;;;;;;17.35;72.69;99638.95;1643052;87;21142;-65
2021/05/02 06:37:51;;;;;;;6.42;3.80;;;;;;;17.36;72.60;99641.45;1642928;87;21119;-65
2021/05/02 06:40:18;;;;;;;8.68;4.12;;;;;;;17.40;72.57;99648.14;1642802;87;21345;-65
2021/05/02 06:42:46;;;;;;;7.85;4.50;;;;;;;17.41;72.36;99645.66;1643428;87;21376;-64
2021/05/02 06:45:16;;;;;;;8.68;4.35;;;;;;;17.42;72.41;99643.18;1642948;87;21261;-64
2021/05/02 06:47:44;;;;;;;6.10;4.05;;;;;;;17.46;72.04;99646.27;1642903;87;21059;-65
2021/05/02 06:50:13;;;;;;;6.87;3.70;;;;;;;17.47;71.97;99646.55;1643050;87;21178;-65
2021/05/02 06:52:41;;;;;;;6.62;4.00;;;;;;;17.50;71.98;99654.88;1643038;87;21255;-65
2021/05/02 06:55:10;;;;;;;7.65;4.70;;;;;;;17.52;71.79;99662.39;1643145;87;21346;-65
2021/05/02 06:57:37;;;;;;;8.20;4.37;;;;;;;17.53;71.61;99670.44;1643159;87;21736;-65
2021/05/02 07:00:06;;;;;;;9.20;3.72;;;;;;;17.53;71.48;99677.36;1643138;87;21083;-65
2021/05/02 07:02:33;;;;;;;6.45;4.00;;;;;;;17.51;71.52;99687.86;1643093;87;21127;-65
2021/05/02 07:05:01;;;;;;;7.35;4.45;;;;;;;17.52;71.58;99698.39;1643137;87;21328;-65
2021/05/02 07:07:28;;;;;;;7.22;4.33;;;;;;;17.53;71.66;99702.84;1643087;87;21063;-65
2021/05/02 07:09:56;;;;;;;7.65;4.33;;;;;;;17.50;71.64;99686.73;1643103;87;21103;-65
2021/05/02 07:12:25;;;;;;;8.25;4.92;;;;;;;17.45;71.87;99666.75;1643075;87;21127;-65
2021/05/02 07:14:53;;;;;;;9.63;4.67;;;;;;;17.42;71.78;99668.66;1643136;87;21103;-65
2021/05/02 07:17:20;;;;;;;9.05;4.33;;;;;;;17.41;71.78;99684.44;1643012;87;21117;-65
2021/05/02 07:19:49;;;;;;;7.97;4.90;;;;;;;17.41;71.66;99689.97;1642966;87;21861;-65
2021/05/02 07:22:18;;;;;;;9.73;5.45;;;;;;;17.39;71.50;99685.24;1643170;87;21488;-65
2021/05/02 07:24:50;;;;;;;9.28;4.62;;;;;;;17.38;71.49;99677.20;1643110;87;21310;-65
2021/05/02 07:27:18;;;;;;;9.58;5.33;;;;;;;17.41;71.48;99684.44;1643019;87;21317;-65
2021/05/02 07:29:46;;;;;;;10.80;5.50;;;;;;;17.42;70.94;99687.49;1642806;87;21132;-65
2021/05/02 07:32:14;;;;;;;9.85;5.12;;;;;;;17.39;70.84;99682.47;1643260;87;21095;-64
2021/05/02 07:34:41;;;;;;;10.38;5.90;;;;;;;17.43;70.79;99685.56;1643102;87;21079;-65
2021/05/02 07:37:10;;;;;;;8.40;4.85;;;;;;;17.45;70.91;99681.98;1643080;87;21108;-64
2021/05/02 07:39:41;;;;;;;8.53;5.35;;;;;;;17.49;70.69;99665.67;1643101;87;21098;-66
2021/05/02 07:42:09;;;;;;;8.95;5.33;;;;;;;17.51;70.60;99657.39;1643142;87;21847;-65
2021/05/02 07:44:37;;;;;;;13.48;5.00;;;;;;;17.56;70.57;99656.64;1643127;87;21333;-66
2021/05/02 07:47:04;;;;;;;10.78;5.65;;;;;;;17.63;70.54;99669.73;1643042;87;21087;-66
2021/05/02 07:49:33;;;;;;;10.68;5.70;;;;;;;17.68;70.34;99667.05;1643162;87;21147;-66
2021/05/02 07:52:00;;;;;;;12.00;5.80;;;;;;;17.72;70.25;99663.48;1643048;87;21095;-65
2021/05/02 07:54:29;;;;;;;12.10;5.70;;;;;;;17.78;70.20;99659.38;1642961;87;21302;-64
2021/05/02 07:56:56;;;;;;;8.20;5.17;;;;;;;17.82;70.12;99665.52;1643203;87;21108;-64
2021/05/02 07:59:24;;;;;;;10.53;5.55;;;;;;;17.88;69.83;99671.39;1643046;87;21079;-65
2021/05/02 08:01:51;;;;;;;9.95;5.50;;;;;;;17.92;69.70;99671.15;1643063;87;21333;-66
2021/05/02 08:04:19;;;;;;;12.33;6.20;;;;;;;17.94;69.37;99662.02;1643039;87;21124;-66
2021/05/02 08:06:47;;;;;;;11.28;6.10;;;;;;;17.94;69.12;99659.25;1643088;87;21143;-63
2021/05/02 08:09:15;;;;;;;9.15;5.42;;;;;;;17.91;69.08;99658.94;1642663;87;21091;-66
2021/05/02 08:11:42;;;;;;;10.23;5.28;;;;;;;17.90;68.93;99660.88;1644001;86;21122;-72
2021/05/02 08:14:10;;;;;;;11.65;5.80;;;;;;;17.88;68.93;99657.53;1679897;85;21067;-68
2021/05/02 08:16:37;;;;;;;11.95;6.45;;;;;;;17.89;69.13;99658.37;1651157;86;21106;-69
2021/05/02 08:19:04;;;;;;;10.15;6.05;;;;;;;17.89;69.21;99652.83;1655643;86;21113;-71
2021/05/02 08:21:32;;;;;;;12.33;7.80;;;;;;;17.85;69.11;99638.66;1650819;86;21106;-65
2021/05/02 08:24:00;;;;;;;11.10;6.78;;;;;;;17.82;69.15;99646.12;1644510;87;21313;-68
2021/05/02 08:26:27;;;;;;;16.17;7.05;;;;;;;17.81;69.11;99640.84;1644451;87;21351;-69
2021/05/02 08:28:56;;;;;;;12.80;7.17;;;;;;;17.81;69.13;99639.45;1646956;86;21093;-68
2021/05/02 08:31:23;;;;;;;12.07;7.70;;;;;;;17.80;69.23;99616.45;1685963;85;21343;-69
2021/05/02 08:33:51;;;;;;;14.68;8.43;;;;;;;17.82;69.29;99622.56;1657719;86;21347;-67
2021/05/02 08:36:19;;;;;;;12.50;7.80;;;;;;;17.86;69.27;99636.17;1686258;85;21793;-68
2021/05/02 08:38:48;;;;;;;14.60;8.15;;;;;;;17.88;69.22;99627.05;1657596;86;21147;-69
2021/05/02 08:41:16;;;;;;;17.10;8.13;;;;;;;17.92;69.11;99631.52;1644991;87;21058;-71
2021/05/02 08:43:44;;;;;;;15.75;8.85;;;;;;;17.93;68.95;99635.41;1644724;86;21239;-66
2021/05/02 08:46:11;;;;;;;16.52;9.33;;;;;;;17.93;68.87;99634.56;1653167;85;21413;-72
2021/05/02 08:48:39;;;;;;;16.45;10.53;;;;;;;17.94;68.74;99628.77;1657928;86;21465;-73
2021/05/02 08:51:06;;;;;;;18.67;10.03;;;;;;;17.96;68.72;99616.86;1686265;85;21352;-72
2021/05/02 08:53:34;;;;;;;15.28;9.05;;;;;;;17.98;68.62;99615.20;1687114;85;21369;-72
2021/05/02 08:56:02;;;;;;;13.03;8.33;;;;;;;18.00;68.64;99606.08;1657799;86;21297;-69
2021/05/02 08:58:30;;;;;;;14.20;9.08;;;;;;;18.03;68.58;99598.61;1665117;85;21046;-74
2021/05/02 09:00:59;;;;;;;17.23;9.25;;;;;;;18.06;68.56;99598.08;1633120;88;21308;-69
2021/05/02 09:03:43;;;;;;;18.23;10.60;;;;;;;18.04;68.44;99578.94;1632924;87;21146;-73
2021/05/02 09:06:29;;;;;;;16.50;10.43;;;;;;;18.04;68.31;99580.33;1633644;86;21099;-74
2021/05/02 09:09:02;;;;;;;22.82;11.50;;;;;;;18.06;68.40;99584.22;1607902;88;21230;-76
2021/05/02 09:11:39;;;;;;;15.15;9.33;;;;;;;18.09;68.28;99588.39;1669697;86;21186;-81
2021/05/02 09:14:26;;;;;;;19.10;10.20;;;;;;;18.12;68.01;99569.84;1649209;86;21753;-74
2021/05/02 09:17:01;;;;;;;16.95;9.55;;;;;;;18.12;68.08;99583.70;1621852;88;21106;-79
2021/05/02 09:19:31;;;;;;;14.95;10.30;;;;;;;18.13;68.22;99575.66;1619980;88;21199;-70
2021/05/02 09:22:14;;;;;;;18.45;10.48;;;;;;;18.16;68.21;99567.65;1631281;87;21138;-70
2021/05/02 09:24:42;;;;;;;14.80;9.33;;;;;;;18.20;68.06;99567.95;1642978;87;21087;-71
2021/05/02 09:27:14;;;;;;;17.73;9.90;;;;;;;18.23;67.90;99577.98;1660367;86;21105;-71
2021/05/02 09:29:45;;;;;;;16.60;9.98;;;;;;;18.27;67.80;99583.28;1660786;86;21245;-67
2021/05/02 09:32:14;;;;;;;17.67;10.00;;;;;;;18.30;67.76;99579.97;1660886;86;21289;-71
2021/05/02 09:34:50;;;;;;;19.00;10.65;;;;;;;18.32;67.62;99574.98;1643077;87;21132;-71
2021/05/02 09:37:20;;;;;;;22.73;11.67;;;;;;;18.33;67.54;99575.27;1643269;87;21325;-70
2021/05/02 09:39:50;;;;;;;18.55;11.38;;;;;;;18.32;67.43;99580.53;1681862;85;21931;-71
2021/05/02 09:42:33;;;;;;;17.37;9.95;;;;;;;18.31;67.42;99573.87;1681045;85;21167;-70
2021/05/02 09:44:58;;;;;;;18.95;10.20;;;;;;;18.31;67.64;99565.00;1681422;85;21420;-65
2021/05/02 09:47:33;;;;;;;20.88;10.88;;;;;;;18.30;67.73;99561.94;1660781;86;21083;-70
2021/05/02 09:50:20;;;;;;;20.55;11.65;;;;;;;18.29;68.05;99551.12;1660836;86;21405;-66
2021/05/02 09:52:53;;;;;;;17.37;10.50;;;;;;;18.27;68.56;99563.03;1660592;86;21248;-69
2021/05/02 09:55:44;;;;;;;16.77;10.20;;;;;;;18.23;69.06;99561.90;1638124;87;21269;-68
2021/05/02 09:58:22;;;;;;;24.95;10.80;;;;;;;18.18;69.44;99557.67;1643794;87;21216;-71
2021/05/02 10:00:56;;;;;;;17.42;11.08;;;;;;;18.14;69.85;99555.16;1671542;85;21153;-69
2021/05/02 10:03:25;;;;;;;19.07;11.80;;;;;;;18.11;69.96;99551.53;1671805;85;21484;-68
2021/05/02 10:06:07;;;;;;;21.20;12.00;;;;;;;18.10;70.24;99550.70;1671764;85;21066;-70
2021/05/02 10:08:35;;;;;;;17.25;11.00;;;;;;;18.07;70.25;99555.39;1671836;85;21340;-72
2021/05/02 10:11:08;;;;;;;18.17;10.63;;;;;;;18.06;70.47;99565.65;1658917;85;21091;-69
2021/05/02 10:13:38;;;;;;;17.52;11.73;;;;;;;18.08;70.41;99569.54;1632661;86;21745;-71
2021/05/02 10:16:05;;;;;;;17.55;11.55;;;;;;;18.08;70.50;99567.31;1632746;86;21084;-74
2021/05/02 10:18:36;;;;;;;19.80;10.80;;;;;;;18.09;70.78;99576.75;1601973;89;21110;-72
2021/05/02 10:21:05;;;;;;;21.65;10.68;;;;;;;18.06;70.93;99591.98;1670702;85;21146;-73
2021/05/02 10:23:35;;;;;;;17.73;10.08;;;;;;;18.00;70.78;99590.83;1660962;85;21238;-70
2021/05/02 10:26:05;;;;;;;23.07;11.22;;;;;;;17.94;70.94;99591.34;1660889;86;22054;-69
2021/05/02 10:28:34;;;;;;;16.77;10.48;;;;;;;17.87;71.07;99585.74;1661272;86;21451;-73
2021/05/02 10:31:04;;;;;;;17.82;10.70;;;;;;;17.82;71.20;99592.62;1643502;87;21777;-72
2021/05/02 10:33:37;;;;;;;22.67;10.68;;;;;;;17.74;71.26;99589.80;1643411;87;21095;-74
2021/05/02 10:36:07;;;;;;;21.48;10.13;;;;;;;17.68;71.56;99594.46;1645096;87;21531;-68
2021/05/02 10:39:00;;;;;;;17.25;9.78;;;;;;;17.69;71.92;99604.99;1643250;87;21195;-71
2021/05/02 10:41:38;;;;;;;20.60;11.20;;;;;;;17.70;71.88;99603.89;1643138;87;21214;-76
2021/05/02 10:44:16;;;;;;;22.75;11.43;;;;;;;17.71;72.02;99597.25;1643151;86;21159;-71
2021/05/02 10:46:53;;;;;;;21.60;12.00;;;;;;;17.77;72.00;99591.20;1643095;87;21330;-70
2021/05/02 10:49:36;;;;;;;16.45;10.32;;;;;;;17.82;72.11;99593.47;1643057;87;21131;-71
2021/05/02 10:52:31;;;;;;;22.25;11.25;;;;;;;17.84;71.83;99587.11;1643147;87;21259;-68
2021/05/02 10:55:10;;;;;;;21.53;11.07;;;;;;;17.87;72.17;99582.42;1643196;87;21815;-71
2021/05/02 10:57:37;;;;;;;21.60;11.83;;;;;;;17.93;72.58;99576.36;1634876;87;21300;-69
2021/05/02 11:00:13;;;;;;;17.52;11.10;;;;;;;17.95;72.86;99576.94;1643194;87;21087;-74
2021/05/02 11:02:47;;;;;;;18.50;11.28;;;;;;;17.97;73.02;99561.70;1643443;87;21068;-74
2021/05/02 11:05:22;;;;;;;16.77;11.18;;;;;;;18.00;73.09;99554.80;1643170;87;21103;-76
2021/05/02 11:07:50;;;;;;;23.15;11.08;;;;;;;18.06;73.21;99549.56;1682124;85;21213;-70
2021/05/02 11:10:18;;;;;;;21.20;11.53;;;;;;;18.14;73.44;99549.61;1641397;86;21115;-77
2021/05/02 11:12:48;;;;;;;19.98;12.10;;;;;;;18.18;73.33;99545.20;1661493;85;21375;-72
2021/05/02 11:15:32;;;;;;;20.92;12.85;;;;;;;18.22;73.27;99548.59;1657106;86;21090;-74
2021/05/02 11:18:01;;;;;;;22.52;11.18;;;;;;;18.25;73.37;99544.44;1671584;85;21308;-69
2021/05/02 11:20:51;;;;;;;19.55;10.95;;;;;;;18.27;73.46;99547.78;1671813;85;21058;-74
2021/05/02 11:23:39;;;;;;;22.60;11.65;;;;;;;18.28;73.35;99545.29;1646296;87;21653;-74
2021/05/02 11:26:09;;;;;;;22.10;11.45;;;;;;;18.26;73.30;99545.56;1671917;85;21473;-73
2021/05/02 11:28:57;;;;;;;18.07;11.15;;;;;;;18.24;73.41;99549.70;1646505;85;21351;-73
2021/05/02 11:31:16;;;;;;;18.48;11.00;;;;;;;18.20;73.53;99545.21;1671585;85;21773;-73
2021/05/02 11:33:44;;;;;;;18.82;9.00;;;;;;;18.16;73.63;99546.85;1655353;85;21393;-73
2021/05/02 11:36:37;;;;;;;17.67;8.48;;;;;;;18.12;73.54;99546.27;1673837;85;21251;-71
2021/05/02 11:39:06;;;;;;;14.68;8.40;;;;;;;18.04;73.60;99538.75;1655757;85;21122;-73
2021/05/02 11:42:05;;;;;;;16.85;9.95;;;;;;;17.96;73.72;99530.94;1673744;85;21065;-71